createdAt,value
2019-04-07T00:05:17.411Z,74.31
2019-04-07T00:20:30.872Z,74.93
2019-04-07T00:54:21.809Z,73.77
2019-04-07T00:57:08.958Z,74.34
2019-04-07T00:59:56.114Z,73.59
2019-04-07T01:15:07.796Z,73.06
2019-04-07T01:17:55.007Z,73.93
2019-04-07T01:20:41.888Z,74.12
2019-04-07T01:23:29.337Z,74.60
2019-04-07T01:26:17.362Z,75.38
2019-04-07T01:29:04.621Z,76.11
2019-04-07T01:31:58.602Z,75.54
2019-04-07T02:40:03.273Z,75.49
2019-04-07T02:42:48.519Z,74.54
2019-04-07T02:45:35.243Z,75.34
2019-04-07T04:18:37.612Z,79.16
2019-04-07T04:21:24.502Z,79.43
2019-04-07T04:36:36.058Z,79.02
2019-04-07T04:39:22.933Z,78.68
2019-04-07T04:42:10.438Z,78.62
2019-04-07T04:44:56.785Z,78.56
2019-04-07T04:57:09.341Z,78.75
2019-04-07T04:59:55.977Z,79.35
2019-04-07T05:12:08.384Z,78.50
2019-04-07T05:14:58.896Z,76.42
2019-04-07T05:17:52.621Z,77.17
2019-04-07T06:00:57.665Z,78.61
2019-04-07T06:03:44.521Z,79.93
2019-04-07T06:06:31.692Z,80.51
2019-04-07T06:12:26.357Z,81.35
2019-04-07T06:15:15.740Z,81.88
2019-04-07T06:18:01.524Z,82.33
2019-04-07T06:20:48.494Z,82.59
2019-04-07T06:23:35.358Z,82.47
2019-04-07T06:45:02.028Z,80.22
2019-04-07T06:47:51.921Z,80.80
2019-04-07T06:50:57.785Z,80.51
2019-04-07T06:53:38.164Z,80.61
2019-04-07T06:59:40.575Z,79.26
2019-04-07T07:06:01.193Z,79.38
2019-04-07T07:08:57.314Z,79.04
2019-04-07T07:11:59.346Z,78.45
2019-04-07T07:21:05.093Z,77.13
2019-04-07T07:30:12.094Z,73.52
2019-04-07T07:33:12.688Z,73.38
2019-04-07T07:35:59.546Z,73.29
2019-04-07T07:38:57.530Z,72.47
2019-04-07T07:47:54.869Z,69.62
2019-04-07T07:50:43.693Z,70.25
2019-04-07T07:53:44.961Z,69.49
2019-04-07T07:56:32.170Z,69.93
2019-04-07T07:59:19.996Z,65.64
2019-04-07T08:05:12.520Z,68.23
2019-04-07T08:08:00.599Z,67.30
2019-04-07T08:10:47.348Z,67.23
2019-04-07T08:13:41.770Z,67.42
2019-04-07T08:16:20.594Z,66.54
2019-04-07T08:19:09.391Z,65.76
2019-04-07T08:21:54.443Z,64.51
2019-04-07T08:24:41.550Z,64.80
2019-04-07T08:27:31.042Z,64.26
2019-04-07T08:30:15.332Z,64.58
2019-04-07T08:33:03.483Z,64.17
2019-04-07T08:35:50.228Z,64.62
2019-04-07T08:38:37.588Z,64.63
2019-04-07T08:41:24.473Z,63.39
2019-04-07T08:44:11.491Z,62.70
2019-04-07T08:46:58.194Z,63.03
2019-04-07T08:49:45.030Z,61.86
2019-04-07T08:52:32.200Z,62.41
2019-04-07T08:55:20.446Z,62.85
2019-04-07T08:58:06.670Z,62.37
2019-04-07T09:00:53.965Z,61.74
2019-04-07T09:03:44.451Z,60.02
2019-04-07T09:06:41.506Z,55.30
2019-04-07T09:09:34.474Z,58.60
2019-04-07T09:12:15.485Z,58.88
2019-04-07T09:15:04.368Z,57.24
2019-04-07T09:18:03.391Z,53.03
2019-04-07T09:21:10.162Z,56.32
2019-04-07T09:23:59.216Z,57.58
2019-04-07T09:26:54.475Z,57.30
2019-04-07T09:29:47.847Z,56.03
2019-04-07T09:32:41.637Z,55.58
2019-04-07T09:35:47.589Z,54.42
2019-04-07T09:38:45.962Z,54.75
2019-04-07T09:41:45.119Z,55.56
2019-04-07T09:44:43.810Z,54.56
2019-04-07T09:47:37.982Z,54.51
2019-04-07T09:53:50.525Z,54.60
2019-04-07T09:56:41.811Z,48.67
2019-04-07T09:59:35.022Z,51.83
2019-04-07T10:02:39.967Z,52.38
2019-04-07T10:05:26.792Z,53.56
2019-04-07T10:08:26.501Z,54.03
2019-04-07T10:11:17.141Z,52.07
2019-04-07T10:14:12.734Z,52.20
2019-04-07T10:17:05.457Z,53.42
2019-04-07T10:19:55.614Z,48.00
2019-04-07T10:22:42.978Z,51.07
2019-04-07T10:25:39.125Z,51.95
2019-04-07T10:28:44.181Z,51.37
2019-04-07T10:31:49.430Z,50.31
2019-04-07T10:38:04.008Z,50.12
2019-04-07T10:40:54.357Z,50.30
2019-04-07T10:43:56.192Z,50.16
2019-04-07T10:47:01.540Z,51.32
2019-04-07T10:50:08.783Z,50.43
2019-04-07T10:53:06.695Z,45.36
2019-04-07T10:56:12.720Z,49.92
2019-04-07T10:59:12.568Z,42.78
2019-04-07T11:05:26.068Z,46.67
2019-04-07T11:08:18.255Z,46.85
2019-04-07T11:11:23.153Z,47.16
2019-04-07T11:14:29.388Z,48.61
2019-04-07T11:17:19.378Z,46.62
2019-04-07T11:20:06.006Z,47.18
2019-04-07T11:22:59.088Z,48.53
2019-04-07T11:26:04.544Z,49.17
2019-04-07T11:28:53.759Z,48.91
2019-04-07T11:31:40.911Z,47.12
2019-04-07T11:38:00.351Z,48.67
2019-04-07T11:41:03.452Z,48.40
2019-04-07T11:43:53.385Z,47.95
2019-04-07T11:46:58.239Z,47.59
2019-04-07T11:49:46.104Z,41.65
2019-04-07T11:52:33.337Z,45.40
2019-04-07T11:55:26.204Z,44.81
2019-04-07T11:58:33.410Z,46.63
2019-04-07T12:01:24.209Z,46.94
2019-04-07T12:04:13.961Z,46.66
2019-04-07T12:07:19.093Z,45.55
2019-04-07T12:10:06.502Z,46.08
2019-04-07T12:13:00.201Z,45.52
2019-04-07T12:15:46.353Z,46.16
2019-04-07T12:18:36.398Z,45.86
2019-04-07T12:21:25.456Z,45.84
2019-04-07T12:24:25.928Z,46.11
2019-04-07T12:27:23.931Z,40.02
2019-04-07T12:30:13.253Z,43.22
2019-04-07T12:33:09.008Z,42.19
2019-04-07T12:36:14.335Z,42.76
2019-04-07T12:39:01.778Z,44.13
2019-04-07T12:42:08.302Z,39.24
2019-04-07T12:44:55.976Z,41.81
2019-04-07T12:47:45.949Z,42.64
2019-04-07T12:50:33.809Z,44.63
2019-04-07T12:53:38.969Z,44.32
2019-04-07T12:56:43.516Z,43.58
2019-04-07T12:59:33.700Z,45.10
2019-04-07T13:02:27.169Z,44.14
2019-04-07T13:05:34.592Z,36.48
2019-04-07T13:08:24.007Z,39.59
2019-04-07T13:11:24.685Z,42.41
2019-04-07T13:14:03.631Z,42.95
2019-04-07T13:17:07.340Z,41.55
2019-04-07T13:19:53.477Z,43.38
2019-04-07T13:22:49.966Z,43.09
2019-04-07T13:25:37.496Z,42.01
2019-04-07T13:28:27.193Z,37.90
2019-04-07T13:31:26.371Z,35.31
2019-04-07T13:34:31.067Z,38.91
2019-04-07T13:40:31.721Z,40.38
2019-04-07T13:43:19.027Z,39.87
2019-04-07T13:46:37.951Z,40.36
2019-04-07T13:49:42.202Z,41.35
2019-04-07T13:52:32.378Z,38.10
2019-04-07T13:55:40.942Z,39.12
2019-04-07T13:58:32.967Z,41.41
2019-04-07T14:01:18.592Z,41.47
2019-04-07T14:04:16.737Z,40.69
2019-04-07T14:07:21.912Z,40.27
2019-04-07T14:10:14.662Z,38.38
2019-04-07T14:13:06.227Z,39.01
2019-04-07T14:16:07.480Z,39.26
2019-04-07T14:19:03.602Z,40.18
2019-04-07T14:22:03.300Z,40.89
2019-04-07T14:24:52.708Z,39.96
2019-04-07T14:27:47.322Z,39.74
2019-04-07T14:30:49.905Z,36.60
2019-04-07T14:33:55.653Z,38.36
2019-04-07T14:36:45.764Z,39.06
2019-04-07T14:39:33.393Z,38.94
2019-04-07T14:42:20.436Z,40.33
2019-04-07T14:45:27.080Z,41.06
2019-04-07T14:48:31.488Z,40.21
2019-04-07T14:51:21.546Z,40.22
2019-04-07T14:54:19.511Z,40.10
2019-04-07T14:57:15.428Z,40.30
2019-04-07T15:00:02.169Z,40.30
2019-04-07T15:02:49.852Z,40.73
2019-04-07T15:05:45.064Z,36.17
2019-04-07T15:08:32.934Z,34.19
2019-04-07T15:11:25.745Z,37.17
2019-04-07T15:14:13.571Z,38.15
2019-04-07T15:17:00.378Z,40.03
2019-04-07T15:19:47.727Z,39.63
2019-04-07T15:22:34.619Z,37.41
2019-04-07T15:25:21.551Z,38.80
2019-04-07T15:28:09.017Z,36.69
2019-04-07T15:30:56.819Z,39.13
2019-04-07T15:33:43.518Z,39.40
2019-04-07T15:36:31.115Z,39.67
2019-04-07T15:39:18.286Z,39.29
2019-04-07T15:42:06.509Z,38.63
2019-04-07T15:48:00.594Z,37.68
2019-04-07T15:50:46.284Z,36.82
2019-04-07T15:53:51.529Z,36.42
2019-04-07T15:56:34.368Z,36.19
2019-04-07T15:59:21.626Z,35.97
2019-04-07T16:02:10.824Z,35.08
2019-04-07T16:05:03.709Z,35.90
2019-04-07T16:07:53.192Z,35.92
2019-04-07T16:10:36.331Z,36.47
2019-04-07T16:13:23.858Z,36.19
2019-04-07T16:16:10.085Z,35.12
2019-04-07T16:18:57.983Z,30.87
2019-04-07T16:21:45.699Z,32.96
2019-04-07T16:24:32.770Z,34.97
2019-04-07T16:27:19.600Z,32.34
2019-04-07T16:30:08.548Z,33.95
2019-04-07T16:32:54.842Z,34.71
2019-04-07T16:35:43.931Z,31.59
2019-04-07T16:38:30.210Z,35.02
2019-04-07T16:41:16.760Z,36.58
2019-04-07T16:44:07.006Z,34.83
2019-04-07T16:46:54.673Z,37.37
2019-04-07T16:49:38.239Z,38.78
2019-04-07T16:52:26.567Z,39.57
2019-04-07T16:55:31.504Z,40.98
2019-04-07T17:01:25.423Z,43.03
2019-04-07T17:04:14.796Z,43.81
2019-04-07T17:07:05.021Z,44.00
2019-04-07T17:09:48.937Z,44.91
2019-04-07T17:12:43.916Z,45.58
2019-04-07T17:15:30.039Z,46.19
2019-04-07T17:18:35.589Z,46.77
2019-04-07T17:21:22.901Z,47.00
2019-04-07T17:24:11.115Z,45.47
2019-04-07T17:26:58.233Z,47.20
2019-04-07T17:29:46.751Z,47.49
2019-04-07T17:32:35.459Z,47.92
2019-04-07T17:35:19.402Z,47.97
2019-04-07T17:38:06.876Z,48.42
2019-04-07T17:40:53.351Z,48.84
2019-04-07T17:43:49.426Z,49.21
2019-04-07T17:46:36.597Z,50.20
2019-04-07T17:49:26.316Z,50.85
2019-04-07T17:52:29.115Z,51.61
2019-04-07T17:55:25.257Z,52.05
2019-04-07T17:58:10.046Z,52.76
2019-04-07T18:00:56.527Z,52.67
2019-04-07T18:03:47.325Z,51.60
2019-04-07T18:09:44.918Z,52.21
2019-04-07T18:12:45.454Z,54.21
2019-04-07T18:15:36.270Z,54.40
2019-04-07T18:18:30.403Z,54.92
2019-04-07T18:21:35.029Z,55.09
2019-04-07T18:24:22.698Z,55.39
2019-04-07T18:27:17.123Z,55.31
2019-04-07T18:30:08.311Z,55.87
2019-04-07T18:32:54.263Z,55.53
2019-04-07T18:35:44.160Z,55.40
2019-04-07T18:41:52.083Z,55.21
2019-04-07T18:44:41.221Z,55.09
2019-04-07T18:51:13.228Z,55.39
2019-04-07T18:54:00.355Z,54.97
2019-04-07T18:56:59.192Z,54.74
2019-04-07T19:00:03.883Z,54.68
2019-04-07T19:03:00.433Z,53.85
2019-04-07T19:06:06.034Z,55.20
2019-04-07T19:08:54.383Z,55.40
2019-04-07T19:11:47.026Z,55.62
2019-04-07T19:14:44.480Z,54.84
2019-04-07T19:17:28.171Z,56.34
2019-04-07T19:20:34.125Z,57.08
2019-04-07T19:23:27.170Z,57.29
2019-04-07T19:29:43.900Z,57.76
2019-04-07T19:32:38.811Z,57.64
2019-04-07T19:35:28.249Z,57.60
2019-04-07T19:41:11.038Z,57.77
2019-04-07T19:43:58.386Z,58.08
2019-04-07T19:46:48.653Z,58.15
2019-04-07T19:49:38.970Z,58.34
2019-04-07T19:52:43.896Z,58.29
2019-04-07T19:55:40.778Z,57.20
2019-04-07T19:58:45.648Z,56.86
2019-04-07T20:01:42.210Z,58.29
2019-04-07T20:04:28.767Z,56.88
2019-04-07T20:07:23.064Z,58.18
2019-04-07T20:10:28.611Z,56.85
2019-04-07T20:13:19.882Z,58.60
2019-04-07T20:19:38.237Z,58.68
2019-04-07T20:22:29.089Z,58.77
2019-04-07T20:25:35.223Z,58.84
2019-04-07T20:28:32.485Z,59.30
2019-04-07T20:34:30.831Z,58.41
2019-04-07T20:37:26.207Z,58.32
2019-04-07T20:40:23.642Z,59.65
2019-04-07T20:43:25.594Z,59.94
2019-04-07T20:46:31.612Z,60.00
2019-04-07T21:28:41.209Z,62.93
2019-04-07T21:31:28.737Z,62.61
2019-04-07T21:34:26.920Z,62.39
2019-04-07T21:56:48.873Z,62.71
2019-04-07T22:19:15.098Z,62.80
2019-04-07T22:40:42.530Z,60.60
2019-04-07T23:24:10.944Z,64.04
2019-04-07T23:26:58.529Z,64.47
2019-04-07T23:29:44.709Z,64.76
2019-04-07T23:44:56.039Z,65.10
2019-04-07T23:47:45.868Z,63.60
